Time;durP1;ratioP1;P1;durP2;ratioP2;P2;SDS_P1;SDS_P2;PMS_P1;PMS_P2;Temp;Humidity;BMP_temperature;BMP_pressure;BME280_temperature;BME280_humidity;BME280_pressure;Samples;Min_cycle;Max_cycle;Signal;HPM_P1;HPM_P2
2022/05/11 03:03:03;;;;;;;1.00;0.90;;;18.80;70.70;;;;;;4972925;28;20478;-66
2022/05/11 03:05:30;;;;;;;0.80;0.80;;;18.80;70.80;;;;;;4974081;28;20457;-66
2022/05/11 03:07:57;;;;;;;0.70;0.70;;;18.60;70.60;;;;;;4974001;28;20501;-68
2022/05/11 03:10:23;;;;;;;0.70;0.70;;;18.60;71.10;;;;;;4973952;28;20442;-70
2022/05/11 03:12:50;;;;;;;0.80;0.80;;;18.60;70.70;;;;;;4974092;28;20504;-69
2022/05/11 03:15:17;;;;;;;0.80;0.80;;;18.50;71.40;;;;;;4977760;28;20457;-66
2022/05/11 03:17:44;;;;;;;0.80;0.80;;;18.60;71.10;;;;;;4977595;28;20457;-67
2022/05/11 03:20:13;;;;;;;0.80;0.80;;;18.50;71.30;;;;;;4977486;28;20495;-69
2022/05/11 03:22:39;;;;;;;0.70;0.70;;;18.60;70.90;;;;;;4977307;28;20485;-68
2022/05/11 03:25:07;;;;;;;0.80;0.80;;;18.60;70.60;;;;;;4977437;28;20453;-69
2022/05/11 03:27:34;;;;;;;0.87;0.87;;;18.60;70.50;;;;;;4977392;28;20791;-66
2022/05/11 03:30:01;;;;;;;0.80;0.80;;;18.60;70.30;;;;;;4977379;28;20453;-67
2022/05/11 03:35:13;;;;;;;0.70;0.70;;;18.50;70.20;;;;;;4977145;28;20788;-66
2022/05/11 03:37:40;;;;;;;0.80;0.80;;;18.30;70.90;;;;;;4976872;28;20873;-66
2022/05/11 03:40:08;;;;;;;0.80;0.80;;;18.20;71.10;;;;;;4977109;28;20525;-66
2022/05/11 03:42:37;;;;;;;1.20;1.10;;;18.10;71.50;;;;;;4976937;28;20536;-66
2022/05/11 03:45:09;;;;;;;0.90;0.90;;;18.10;71.50;;;;;;4977039;28;20454;-66
2022/05/11 03:47:36;;;;;;;0.90;0.90;;;18.20;71.40;;;;;;4976953;28;20872;-66
2022/05/11 03:50:03;;;;;;;0.77;0.77;;;18.10;71.60;;;;;;4976959;28;20446;-65
2022/05/11 03:52:31;;;;;;;0.77;0.77;;;18.10;71.40;;;;;;4976831;28;20525;-66
2022/05/11 03:54:58;;;;;;;0.80;0.80;;;18.20;71.50;;;;;;4976950;28;20500;-66
2022/05/11 03:57:25;;;;;;;0.73;0.73;;;18.20;71.40;;;;;;4976856;28;20457;-67
2022/05/11 03:59:51;;;;;;;0.80;0.80;;;18.20;71.20;;;;;;4976821;28;20454;-66
2022/05/11 04:02:18;;;;;;;0.70;0.70;;;18.30;71.20;;;;;;4976381;28;20494;-66
2022/05/11 04:04:45;;;;;;;0.80;0.80;;;18.30;70.90;;;;;;4977213;28;20501;-66
2022/05/11 04:07:12;;;;;;;0.77;0.77;;;18.40;71.00;;;;;;4976636;28;20501;-66
2022/05/11 04:09:40;;;;;;;0.70;0.70;;;18.40;70.80;;;;;;4976239;28;20941;-66
2022/05/11 04:12:08;;;;;;;0.80;0.80;;;18.40;70.80;;;;;;4976455;28;20540;-66
2022/05/11 04:14:35;;;;;;;0.80;0.80;;;18.40;70.70;;;;;;4976083;28;20454;-65
2022/05/11 04:17:02;;;;;;;0.90;0.90;;;18.40;70.70;;;;;;4976064;28;20480;-66
2022/05/11 04:19:29;;;;;;;0.80;0.80;;;18.40;70.90;;;;;;4976265;28;20483;-66
2022/05/11 04:21:56;;;;;;;0.90;0.90;;;18.50;70.70;;;;;;4976086;28;20901;-66
2022/05/11 04:24:23;;;;;;;0.80;0.80;;;18.50;70.10;;;;;;4976137;28;20442;-66
2022/05/11 04:26:51;;;;;;;0.80;0.80;;;18.60;70.30;;;;;;4976045;28;20485;-66
2022/05/11 04:29:18;;;;;;;0.80;0.80;;;18.60;70.20;;;;;;4976529;28;20528;-66
2022/05/11 04:31:44;;;;;;;0.70;0.70;;;18.40;70.50;;;;;;4976147;28;20517;-66
2022/05/11 04:34:12;;;;;;;0.70;0.70;;;18.40;70.80;;;;;;4976145;28;20450;-66
2022/05/11 04:36:39;;;;;;;0.90;0.90;;;18.30;70.70;;;;;;4976176;28;20536;-66
2022/05/11 04:39:06;;;;;;;0.80;0.80;;;18.10;70.90;;;;;;4976097;28;20458;-66
2022/05/11 04:41:33;;;;;;;0.80;0.80;;;18.00;71.20;;;;;;4975806;28;20513;-66
2022/05/11 04:44:01;;;;;;;0.80;0.80;;;17.80;71.60;;;;;;4976047;28;20446;-66
2022/05/11 04:46:28;;;;;;;0.80;0.80;;;17.80;72.10;;;;;;4975976;28;20445;-66
2022/05/11 04:49:16;;;;;;;0.73;0.73;;;17.90;71.60;;;;;;4976334;28;20446;-66
2022/05/11 04:51:42;;;;;;;0.77;0.77;;;17.80;71.60;;;;;;4975308;28;20458;-66
2022/05/11 04:54:09;;;;;;;0.70;0.70;;;17.80;71.70;;;;;;4975789;28;20458;-66
2022/05/11 04:56:37;;;;;;;2.47;1.70;;;17.80;71.90;;;;;;4975710;28;20450;-66
2022/05/11 04:59:06;;;;;;;3.47;1.50;;;18.00;71.90;;;;;;4975645;28;20454;-66
2022/05/11 05:01:33;;;;;;;1.43;1.07;;;18.00;71.60;;;;;;4975287;28;20513;-65
2022/05/11 05:03:59;;;;;;;0.90;0.90;;;18.20;71.40;;;;;;4975670;28;20548;-66
2022/05/11 05:06:27;;;;;;;0.80;0.80;;;18.20;70.90;;;;;;4975618;28;20454;-65
2022/05/11 05:08:55;;;;;;;1.00;0.90;;;18.30;71.00;;;;;;4975598;28;20450;-66
2022/05/11 05:11:21;;;;;;;0.90;0.90;;;18.20;71.30;;;;;;4975354;28;20503;-67
2022/05/11 05:13:48;;;;;;;0.80;0.80;;;18.40;70.80;;;;;;4975444;28;20500;-66
2022/05/11 05:16:16;;;;;;;1.03;0.80;;;18.50;70.50;;;;;;4975443;28;20527;-65
2022/05/11 05:18:43;;;;;;;0.80;0.80;;;18.70;70.10;;;;;;4975126;28;20991;-67
2022/05/11 05:21:09;;;;;;;0.87;0.87;;;18.70;69.60;;;;;;4975244;28;20572;-66
2022/05/11 05:23:36;;;;;;;0.90;0.90;;;18.90;69.60;;;;;;4975295;28;20494;-66
2022/05/11 05:26:03;;;;;;;1.00;0.90;;;18.90;69.30;;;;;;4975263;28;20867;-66
2022/05/11 05:31:18;;;;;;;0.80;0.80;;;19.10;69.50;;;;;;4975090;28;20441;-69
2022/05/11 05:33:45;;;;;;;0.70;0.70;;;19.20;69.00;;;;;;4975150;28;20482;-67
2022/05/11 05:36:12;;;;;;;0.80;0.80;;;19.30;69.00;;;;;;4974921;28;20512;-68
2022/05/11 05:38:39;;;;;;;1.00;0.80;;;19.40;68.70;;;;;;4974836;28;20450;-66
2022/05/11 05:41:06;;;;;;;0.73;0.73;;;19.60;68.30;;;;;;4974936;28;20525;-66
2022/05/11 05:43:33;;;;;;;0.90;0.90;;;19.80;67.80;;;;;;4974869;28;20486;-66
2022/05/11 05:45:59;;;;;;;0.73;0.73;;;19.90;67.70;;;;;;4974508;28;20505;-66
2022/05/11 05:48:28;;;;;;;1.10;0.80;;;19.90;67.30;;;;;;4974442;28;20509;-66
2022/05/11 05:51:02;;;;;;;0.83;0.83;;;19.90;67.80;;;;;;4974399;28;20881;-67
2022/05/11 05:53:28;;;;;;;0.90;0.70;;;20.00;67.30;;;;;;4974415;28;20521;-65
2022/05/11 05:55:55;;;;;;;0.70;0.70;;;20.20;67.00;;;;;;4974251;28;20450;-67
2022/05/11 05:58:22;;;;;;;0.80;0.80;;;20.40;66.00;;;;;;4974323;28;20446;-67
2022/05/11 06:00:48;;;;;;;0.70;0.70;;;20.60;66.20;;;;;;4973799;28;20937;-67
2022/05/11 06:03:19;;;;;;;0.80;0.80;;;20.60;66.60;;;;;;4974630;28;20529;-68
2022/05/11 06:05:47;;;;;;;0.70;0.70;;;20.80;66.20;;;;;;4973991;28;20860;-67
2022/05/11 06:08:15;;;;;;;0.70;0.70;;;21.10;64.80;;;;;;4974270;28;20813;-66
2022/05/11 06:10:42;;;;;;;0.70;0.60;;;21.10;64.90;;;;;;4973899;28;20925;-67
2022/05/11 06:13:09;;;;;;;0.70;0.70;;;21.40;65.00;;;;;;4974072;28;20505;-67
2022/05/11 06:15:39;;;;;;;0.70;0.70;;;21.50;63.80;;;;;;4974111;28;20454;-67
2022/05/11 06:18:06;;;;;;;0.80;0.80;;;21.60;64.20;;;;;;4974204;28;20479;-66
2022/05/11 06:20:34;;;;;;;0.70;0.70;;;21.80;63.60;;;;;;4974012;28;20454;-67
2022/05/11 06:23:03;;;;;;;0.77;0.77;;;22.00;62.50;;;;;;4974097;28;20486;-67
2022/05/11 06:25:30;;;;;;;0.90;0.77;;;22.10;62.90;;;;;;4974036;28;20461;-67
2022/05/11 06:27:58;;;;;;;0.70;0.70;;;22.20;62.30;;;;;;4974027;28;20537;-67
2022/05/11 06:30:25;;;;;;;0.70;0.70;;;22.40;62.30;;;;;;4974017;28;20449;-67
2022/05/11 06:32:52;;;;;;;1.03;0.93;;;22.40;60.70;;;;;;4974392;28;20450;-67
2022/05/11 06:35:19;;;;;;;0.70;0.70;;;22.30;61.70;;;;;;4974093;28;20453;-66
2022/05/11 06:37:45;;;;;;;0.70;0.70;;;22.30;62.80;;;;;;4974072;28;20450;-68
2022/05/11 06:40:15;;;;;;;0.70;0.70;;;22.30;61.30;;;;;;4974131;28;20509;-69
2022/05/11 06:42:43;;;;;;;0.70;0.67;;;22.20;62.70;;;;;;4973841;28;20490;-66
2022/05/11 06:45:11;;;;;;;0.77;0.77;;;22.40;63.00;;;;;;4973583;28;20512;-66
2022/05/11 06:47:37;;;;;;;0.60;0.60;;;22.80;61.50;;;;;;4973890;28;20493;-66
2022/05/11 06:50:05;;;;;;;0.70;0.70;;;22.90;60.60;;;;;;4976215;28;20797;-66
2022/05/11 06:52:32;;;;;;;0.60;0.60;;;23.30;61.10;;;;;;4977604;28;20532;-68
2022/05/11 07:00:29;;;;;;;0.60;0.57;;;23.30;60.60;;;;;;4977516;28;20421;-67
2022/05/11 07:02:56;;;;;;;0.70;0.70;;;22.90;59.40;;;;;;4977110;28;20485;-66
2022/05/11 07:05:23;;;;;;;0.80;0.70;;;23.00;59.80;;;;;;4977563;28;20541;-66
2022/05/11 07:07:52;;;;;;;0.70;0.67;;;22.90;59.70;;;;;;4977369;28;20556;-66
2022/05/11 07:10:19;;;;;;;0.70;0.70;;;23.00;60.50;;;;;;4977488;28;20501;-65
2022/05/11 07:12:48;;;;;;;0.70;0.67;;;23.20;59.50;;;;;;4977303;28;20465;-67
2022/05/11 07:15:16;;;;;;;0.70;0.70;;;23.50;57.90;;;;;;4977199;28;20457;-66
2022/05/11 07:17:47;;;;;;;0.70;0.60;;;23.50;57.70;;;;;;4976999;28;20454;-68
2022/05/11 07:20:18;;;;;;;0.70;0.70;;;23.50;58.20;;;;;;4977167;28;20484;-66
2022/05/11 07:22:45;;;;;;;0.70;0.70;;;23.80;57.20;;;;;;4977021;28;20576;-66
2022/05/11 07:25:16;;;;;;;0.70;0.67;;;23.70;57.10;;;;;;4976798;28;20941;-66
2022/05/11 07:27:44;;;;;;;1.00;0.70;;;24.10;56.90;;;;;;4977011;28;20857;-66
2022/05/11 07:30:15;;;;;;;0.80;0.80;;;24.10;57.90;;;;;;4977048;28;20582;-66
2022/05/11 07:32:42;;;;;;;0.70;0.70;;;24.20;57.80;;;;;;4976934;28;20528;-66
2022/05/11 07:35:09;;;;;;;0.70;0.70;;;24.50;57.70;;;;;;4976992;28;20454;-66
2022/05/11 07:37:36;;;;;;;0.70;0.70;;;24.70;57.30;;;;;;4976662;28;20883;-66
2022/05/11 07:40:04;;;;;;;0.70;0.70;;;24.60;56.50;;;;;;4977919;28;20862;-67
2022/05/11 07:42:31;;;;;;;0.73;0.73;;;24.50;55.50;;;;;;4976583;28;20469;-67
2022/05/11 07:44:58;;;;;;;0.67;0.67;;;24.40;55.10;;;;;;4976748;28;20452;-67
2022/05/11 07:47:26;;;;;;;0.70;0.70;;;24.50;57.10;;;;;;4976717;28;20450;-66
2022/05/11 07:49:53;;;;;;;0.67;0.60;;;24.60;55.10;;;;;;4976285;28;20929;-67
2022/05/11 07:52:20;;;;;;;0.70;0.60;;;24.60;54.70;;;;;;4976198;28;20890;-67
2022/05/11 07:54:46;;;;;;;0.80;0.80;;;24.50;55.20;;;;;;4976516;28;20454;-66
2022/05/11 07:59:59;;;;;;;0.87;0.60;;;24.80;55.90;;;;;;4976082;28;20406;-67
2022/05/11 08:02:28;;;;;;;0.70;0.60;;;24.80;56.30;;;;;;4976147;28;20846;-67
2022/05/11 08:04:58;;;;;;;0.67;0.60;;;25.10;57.40;;;;;;4976146;28;20875;-67
2022/05/11 08:07:26;;;;;;;0.60;0.60;;;25.50;54.70;;;;;;4976947;28;20536;-66
2022/05/11 08:09:54;;;;;;;0.70;0.70;;;25.90;54.40;;;;;;4975901;28;21013;-66
2022/05/11 08:12:20;;;;;;;0.60;0.50;;;25.80;53.00;;;;;;4976111;28;20561;-66
2022/05/11 08:14:47;;;;;;;0.87;0.70;;;25.80;54.10;;;;;;4976273;28;20875;-66
2022/05/11 08:17:14;;;;;;;0.60;0.60;;;25.60;51.70;;;;;;4976083;28;20450;-67
2022/05/11 08:19:44;;;;;;;0.60;0.60;;;25.30;52.30;;;;;;4976142;28;20454;-67
2022/05/11 08:22:10;;;;;;;0.80;0.70;;;25.30;55.40;;;;;;4975941;28;20466;-66
2022/05/11 08:24:37;;;;;;;0.70;0.60;;;25.50;54.30;;;;;;4976573;28;20486;-66
2022/05/11 08:27:05;;;;;;;0.70;0.70;;;25.20;54.20;;;;;;4975954;28;20556;-66
2022/05/11 08:35:02;;;;;;;0.67;0.60;;;25.40;53.40;;;;;;4975690;28;20425;-67
2022/05/11 08:37:29;;;;;;;0.60;0.60;;;25.70;53.50;;;;;;4975737;28;20446;-66
2022/05/11 08:39:56;;;;;;;0.70;0.70;;;25.70;52.10;;;;;;4975766;28;20456;-66
2022/05/11 08:42:25;;;;;;;0.60;0.57;;;25.80;52.00;;;;;;4975597;28;20478;-66
2022/05/11 08:44:52;;;;;;;0.60;0.60;;;26.00;52.30;;;;;;4975299;28;20996;-66
2022/05/11 08:47:31;;;;;;;0.60;0.60;;;26.20;51.60;;;;;;4975574;28;20458;-67
2022/05/11 08:50:09;;;;;;;0.60;0.60;;;26.40;53.50;;;;;;4975555;28;20522;-67
2022/05/11 08:52:46;;;;;;;0.70;0.60;;;26.40;52.00;;;;;;4975967;28;20501;-66
2022/05/11 08:55:24;;;;;;;0.70;0.67;;;26.40;53.40;;;;;;4975482;28;20492;-66
2022/05/11 08:57:53;;;;;;;0.70;0.70;;;26.50;51.70;;;;;;4975401;28;20434;-66
2022/05/11 09:00:20;;;;;;;0.77;0.73;;;26.00;51.80;;;;;;4975316;28;20461;-66
2022/05/11 09:02:51;;;;;;;0.70;0.67;;;26.00;52.30;;;;;;4974842;28;20493;-66
2022/05/11 09:05:21;;;;;;;0.60;0.60;;;25.90;53.60;;;;;;4975258;28;20457;-66
2022/05/11 09:07:52;;;;;;;0.70;0.60;;;25.90;51.90;;;;;;4975268;28;20435;-66
2022/05/11 09:10:23;;;;;;;0.90;0.80;;;25.70;53.70;;;;;;4975211;28;20438;-66
2022/05/11 09:12:55;;;;;;;0.87;0.70;;;25.90;54.00;;;;;;4974164;28;20917;-67
2022/05/11 09:15:22;;;;;;;0.80;0.70;;;26.00;53.50;;;;;;5104637;23;20582;-78
2022/05/11 09:17:48;;;;;;;0.70;0.70;;;25.80;53.10;;;;;;4994963;28;20449;-77
2022/05/11 09:20:18;;;;;;;0.60;0.60;;;25.70;52.90;;;;;;4994836;28;20449;-78
2022/05/11 09:23:03;;;;;;;0.80;0.70;;;25.70;53.10;;;;;;4994817;28;20441;-78
2022/05/11 09:25:32;;;;;;;0.70;0.70;;;25.80;54.40;;;;;;4994731;28;20465;-76
2022/05/11 09:28:15;;;;;;;0.70;0.60;;;26.00;52.10;;;;;;4994807;28;20457;-76
2022/05/11 09:31:01;;;;;;;0.60;0.60;;;26.10;52.30;;;;;;4994802;28;20515;-77
2022/05/11 09:33:29;;;;;;;0.63;0.60;;;26.40;52.50;;;;;;4994675;28;20449;-76
2022/05/11 09:35:57;;;;;;;0.63;0.60;;;26.40;51.60;;;;;;4994502;28;20464;-77
2022/05/11 09:38:41;;;;;;;0.67;0.60;;;26.70;53.30;;;;;;4994567;28;20452;-76
2022/05/11 09:41:22;;;;;;;0.70;0.60;;;26.80;51.40;;;;;;4993493;28;20560;-77
2022/05/11 09:43:51;;;;;;;0.60;0.60;;;26.70;50.00;;;;;;4997605;28;20849;-75
2022/05/11 09:46:22;;;;;;;1.23;0.70;;;26.60;51.70;;;;;;4995771;28;20469;-75
2022/05/11 09:49:01;;;;;;;0.90;0.70;;;26.60;52.00;;;;;;4996919;28;20480;-75
2022/05/11 09:51:33;;;;;;;1.03;0.67;;;26.80;52.70;;;;;;4996141;28;20457;-75
2022/05/11 09:54:29;;;;;;;0.70;0.70;;;27.00;52.10;;;;;;4997823;28;20532;-75
2022/05/11 09:56:59;;;;;;;0.70;0.70;;;26.70;50.60;;;;;;4987309;28;20457;-75
2022/05/11 09:59:30;;;;;;;0.70;0.70;;;26.70;51.20;;;;;;4995962;28;21011;-75
2022/05/11 10:02:03;;;;;;;0.90;0.70;;;26.80;51.00;;;;;;4995055;28;20480;-75
2022/05/11 10:04:35;;;;;;;0.60;0.60;;;26.90;51.60;;;;;;4996146;28;20555;-75
2022/05/11 10:07:05;;;;;;;0.63;0.60;;;27.00;49.90;;;;;;4997497;28;20441;-76
2022/05/11 10:09:36;;;;;;;0.70;0.70;;;26.80;50.90;;;;;;5003040;28;20441;-74
2022/05/11 10:12:08;;;;;;;0.70;0.60;;;26.90;50.80;;;;;;5003046;28;20433;-75
2022/05/11 10:23:03;;;;;;;0.60;0.60;;;27.10;49.30;;;;;;5003446;28;20427;-76
2022/05/11 10:25:35;;;;;;;0.80;0.70;;;27.20;49.00;;;;;;5002190;28;20456;-75
2022/05/11 10:28:09;;;;;;;0.60;0.60;;;27.30;48.70;;;;;;5000088;28;20433;-75
2022/05/11 10:30:43;;;;;;;0.70;0.70;;;27.30;47.80;;;;;;5001638;28;20433;-74
2022/05/11 10:33:23;;;;;;;0.70;0.60;;;27.20;47.90;;;;;;5001616;28;20464;-75
2022/05/11 10:36:00;;;;;;;0.70;0.60;;;27.20;49.20;;;;;;5000317;28;20469;-74
2022/05/11 10:38:38;;;;;;;0.70;0.60;;;27.40;48.90;;;;;;5000558;28;20816;-74
2022/05/11 10:41:18;;;;;;;1.10;0.80;;;27.50;48.30;;;;;;5000006;28;20491;-75
2022/05/11 10:43:56;;;;;;;0.80;0.73;;;27.80;47.40;;;;;;5000070;28;20472;-75
2022/05/11 10:46:29;;;;;;;1.47;0.70;;;28.10;47.10;;;;;;5000420;28;20555;-75
2022/05/11 10:49:22;;;;;;;0.70;0.50;;;28.30;45.70;;;;;;5000054;28;20433;-75
2022/05/11 10:52:01;;;;;;;0.70;0.60;;;28.40;48.70;;;;;;4998972;28;20944;-74
2022/05/11 10:54:34;;;;;;;0.63;0.60;;;28.60;45.60;;;;;;4999489;28;20532;-75
2022/05/11 10:57:08;;;;;;;0.80;0.70;;;28.60;44.30;;;;;;4999811;28;20437;-74
2022/05/11 10:59:57;;;;;;;0.80;0.70;;;28.30;45.50;;;;;;5001222;28;20457;-75
2022/05/11 11:03:02;;;;;;;0.70;0.60;;;28.30;45.30;;;;;;5003083;28;20433;-76
2022/05/11 11:05:37;;;;;;;0.70;0.70;;;28.20;46.70;;;;;;4949719;28;20495;-76
2022/05/11 11:08:15;;;;;;;0.70;0.60;;;28.10;45.80;;;;;;5007682;28;20444;-74
2022/05/11 11:10:47;;;;;;;0.77;0.70;;;27.90;45.50;;;;;;5006469;28;20445;-74
2022/05/11 11:13:34;;;;;;;0.70;0.67;;;27.90;46.90;;;;;;5006489;28;20496;-76
2022/05/11 11:16:03;;;;;;;0.70;0.67;;;28.40;45.30;;;;;;5005666;28;20492;-76
2022/05/11 11:18:33;;;;;;;0.80;0.70;;;28.60;43.90;;;;;;5007084;28;21000;-74
2022/05/11 11:21:02;;;;;;;0.77;0.70;;;28.30;42.90;;;;;;5008989;28;20480;-77
2022/05/11 11:23:32;;;;;;;0.67;0.60;;;28.30;43.90;;;;;;5007965;28;20449;-75
2022/05/11 11:26:01;;;;;;;0.80;0.80;;;28.30;46.00;;;;;;5006992;28;20469;-75
2022/05/11 11:28:33;;;;;;;1.10;0.60;;;28.60;47.20;;;;;;5006834;28;20957;-75
2022/05/11 11:31:21;;;;;;;0.80;0.70;;;29.00;46.40;;;;;;5006965;28;20457;-75
2022/05/11 11:34:18;;;;;;;0.67;0.57;;;29.20;44.20;;;;;;5006616;28;20457;-75
2022/05/11 11:36:46;;;;;;;0.70;0.60;;;28.90;44.80;;;;;;5004174;28;20456;-75
2022/05/11 11:39:35;;;;;;;0.70;0.70;;;29.00;41.00;;;;;;5007927;28;20453;-76
2022/05/11 11:42:06;;;;;;;0.77;0.60;;;28.70;42.70;;;;;;5006809;28;20453;-76
2022/05/11 11:44:46;;;;;;;0.70;0.70;;;28.70;43.30;;;;;;5007054;28;20493;-75
2022/05/11 11:47:38;;;;;;;0.80;0.60;;;28.80;43.30;;;;;;5007266;28;20434;-75
2022/05/11 11:50:11;;;;;;;0.70;0.60;;;28.90;43.40;;;;;;5004793;28;20433;-76
2022/05/11 11:52:41;;;;;;;0.60;0.50;;;28.70;42.00;;;;;;5008234;28;20445;-76
2022/05/11 11:55:23;;;;;;;0.70;0.60;;;28.90;39.70;;;;;;5008098;28;20468;-75
2022/05/11 11:57:55;;;;;;;0.80;0.70;;;28.90;40.40;;;;;;5008278;28;20440;-75
2022/05/11 12:01:07;;;;;;;0.60;0.60;;;28.80;42.80;;;;;;5007229;28;20455;-74
2022/05/11 12:03:38;;;;;;;0.70;0.60;;;28.90;42.00;;;;;;5006762;28;20453;-75
2022/05/11 12:17:28;;;;;;;1.10;0.80;;;29.00;38.60;;;;;;5008232;28;20448;-76
2022/05/11 12:20:04;;;;;;;0.67;0.53;;;29.20;39.80;;;;;;5007991;28;20441;-76
2022/05/11 12:22:32;;;;;;;0.60;0.60;;;29.40;40.00;;;;;;5007718;28;20426;-76
2022/05/11 12:25:03;;;;;;;0.60;0.60;;;29.40;39.50;;;;;;5007724;28;20500;-76
2022/05/11 12:27:33;;;;;;;0.63;0.60;;;29.10;37.90;;;;;;5006210;28;20450;-74
2022/05/11 12:30:02;;;;;;;0.70;0.60;;;29.10;39.00;;;;;;5005246;28;20449;-74
2022/05/11 12:32:31;;;;;;;1.23;0.60;;;29.30;38.90;;;;;;5005449;28;20449;-74
2022/05/11 12:35:10;;;;;;;0.63;0.60;;;29.60;38.70;;;;;;5004973;28;20465;-75
2022/05/11 12:37:38;;;;;;;1.53;0.60;;;29.80;39.30;;;;;;5005461;28;20442;-75
2022/05/11 12:40:08;;;;;;;0.70;0.60;;;29.90;37.60;;;;;;5005156;28;20491;-77
2022/05/11 12:42:38;;;;;;;0.70;0.60;;;29.70;38.50;;;;;;5006105;28;20488;-76
2022/05/11 12:45:09;;;;;;;1.03;0.70;;;29.60;37.00;;;;;;5005413;28;20516;-74
2022/05/11 12:47:37;;;;;;;0.60;0.50;;;29.50;37.70;;;;;;5005446;28;20480;-74
2022/05/11 12:50:07;;;;;;;0.60;0.50;;;29.40;38.30;;;;;;5006279;28;20871;-74
2022/05/11 12:52:34;;;;;;;1.10;0.60;;;29.50;38.60;;;;;;5006107;28;20457;-74
2022/05/11 12:55:03;;;;;;;0.97;0.60;;;29.70;37.90;;;;;;5006474;28;20477;-75
2022/05/11 12:57:40;;;;;;;0.60;0.60;;;29.90;41.30;;;;;;5003999;28;20445;-75
2022/05/11 13:00:13;;;;;;;0.70;0.70;;;30.10;37.70;;;;;;5005658;28;20468;-75
2022/05/11 13:02:42;;;;;;;0.70;0.60;;;30.10;37.00;;;;;;5007005;28;20429;-75
2022/05/11 13:05:14;;;;;;;0.60;0.60;;;29.90;36.80;;;;;;5004414;28;20545;-75
2022/05/11 13:07:47;;;;;;;0.70;0.50;;;30.00;38.00;;;;;;5008425;28;20425;-76
2022/05/11 13:10:18;;;;;;;0.60;0.57;;;29.80;36.70;;;;;;5007040;28;20466;-75
2022/05/11 13:12:50;;;;;;;0.80;0.70;;;29.60;37.70;;;;;;5005034;28;20791;-76
2022/05/11 13:15:31;;;;;;;1.40;0.60;;;29.60;37.50;;;;;;5006556;28;20548;-76
2022/05/11 13:17:57;;;;;;;0.70;0.60;;;29.80;38.80;;;;;;5006173;28;20441;-76
2022/05/11 13:20:29;;;;;;;1.13;0.60;;;29.70;39.00;;;;;;5005612;28;20453;-76
2022/05/11 13:22:59;;;;;;;0.60;0.60;;;29.90;37.60;;;;;;5005301;28;20464;-75
2022/05/11 13:25:46;;;;;;;0.70;0.60;;;29.80;40.30;;;;;;5003572;28;20492;-75
2022/05/11 13:28:16;;;;;;;0.83;0.60;;;30.00;39.10;;;;;;5004082;28;20449;-75
2022/05/11 13:30:45;;;;;;;0.80;0.70;;;30.30;39.40;;;;;;5003663;28;20921;-76
2022/05/11 13:33:39;;;;;;;0.70;0.67;;;30.30;37.70;;;;;;5004620;28;20449;-76
2022/05/11 13:36:23;;;;;;;0.67;0.60;;;30.20;37.00;;;;;;5005251;28;20576;-74
2022/05/11 13:38:57;;;;;;;0.90;0.80;;;30.10;38.20;;;;;;5004386;28;20416;-74
2022/05/11 13:41:31;;;;;;;0.67;0.60;;;30.40;36.90;;;;;;5004617;28;20440;-75
2022/05/11 13:43:59;;;;;;;0.60;0.60;;;30.50;35.00;;;;;;5003846;28;20504;-75
2022/05/11 13:49:33;;;;;;;1.23;0.60;;;30.30;35.30;;;;;;5003343;28;20408;-76
2022/05/11 13:52:05;;;;;;;0.80;0.60;;;30.20;34.80;;;;;;5002987;28;20500;-74
2022/05/11 13:54:41;;;;;;;0.70;0.60;;;30.10;35.50;;;;;;5002239;28;20465;-75
2022/05/11 13:57:11;;;;;;;0.70;0.60;;;30.00;37.50;;;;;;5004348;28;20440;-75
2022/05/11 13:59:48;;;;;;;0.80;0.67;;;30.00;35.80;;;;;;5002104;28;20445;-74
2022/05/11 14:02:16;;;;;;;0.70;0.60;;;30.20;36.70;;;;;;4995759;28;20453;-74
2022/05/11 14:04:46;;;;;;;0.70;0.60;;;30.30;34.60;;;;;;4996132;28;20485;-74
2022/05/11 14:07:24;;;;;;;0.60;0.60;;;30.10;35.60;;;;;;4997311;28;20449;-75
2022/05/11 14:09:51;;;;;;;0.60;0.60;;;30.20;35.70;;;;;;4996179;28;20433;-74
2022/05/11 14:12:18;;;;;;;0.70;0.67;;;30.00;36.00;;;;;;4995222;28;20448;-74
2022/05/11 14:14:45;;;;;;;0.60;0.53;;;30.00;34.90;;;;;;4995261;28;20511;-74
2022/05/11 14:17:17;;;;;;;0.63;0.60;;;30.00;36.60;;;;;;4994757;28;20454;-75
2022/05/11 14:19:44;;;;;;;1.30;0.60;;;30.00;36.70;;;;;;4994283;28;20968;-74
2022/05/11 14:22:11;;;;;;;0.70;0.60;;;30.10;37.60;;;;;;4994055;28;20932;-74
2022/05/11 14:24:40;;;;;;;0.70;0.60;;;30.20;36.30;;;;;;4994285;28;20567;-74
2022/05/11 14:27:07;;;;;;;0.80;0.53;;;30.10;36.70;;;;;;4994787;28;20452;-75
2022/05/11 14:29:33;;;;;;;0.60;0.60;;;30.10;36.90;;;;;;4995750;28;20472;-74
2022/05/11 14:32:01;;;;;;;0.70;0.60;;;30.00;36.80;;;;;;4995751;28;20445;-74
2022/05/11 14:34:29;;;;;;;0.70;0.60;;;30.20;36.70;;;;;;4995687;28;20469;-75
2022/05/11 14:36:56;;;;;;;0.60;0.53;;;30.50;36.70;;;;;;4995451;28;20452;-76
2022/05/11 14:39:26;;;;;;;0.70;0.60;;;30.20;32.70;;;;;;4995753;28;20452;-76
2022/05/11 14:41:57;;;;;;;0.70;0.60;;;30.10;34.30;;;;;;4996201;28;20456;-75
2022/05/11 14:44:23;;;;;;;0.60;0.60;;;30.20;34.00;;;;;;4997276;28;20470;-75
2022/05/11 14:46:50;;;;;;;0.60;0.60;;;30.30;35.80;;;;;;4997222;28;20440;-74
2022/05/11 14:49:17;;;;;;;0.70;0.60;;;30.20;35.10;;;;;;4996854;28;20476;-75
2022/05/11 14:51:44;;;;;;;0.60;0.50;;;30.10;35.60;;;;;;4994931;28;20537;-73
2022/05/11 14:54:13;;;;;;;0.60;0.60;;;30.10;36.30;;;;;;4998185;28;20457;-74
2022/05/11 14:56:40;;;;;;;0.73;0.67;;;30.30;37.90;;;;;;4998263;28;20468;-74
2022/05/11 15:02:04;;;;;;;0.70;0.60;;;30.50;36.30;;;;;;4956938;29;20438;-74
2022/05/11 15:04:36;;;;;;;0.80;0.60;;;30.50;37.70;;;;;;4987385;28;20461;-75
2022/05/11 15:07:03;;;;;;;0.60;0.60;;;30.70;35.90;;;;;;4997062;28;20426;-74
2022/05/11 15:09:31;;;;;;;0.60;0.50;;;30.80;36.30;;;;;;4996777;28;20457;-75
2022/05/11 15:14:45;;;;;;;0.70;0.60;;;31.10;37.80;;;;;;5105260;23;20459;-71
2022/05/11 15:17:16;;;;;;;0.80;0.60;;;30.60;37.00;;;;;;4976004;28;20874;-68
2022/05/11 15:19:43;;;;;;;0.67;0.67;;;30.60;37.30;;;;;;4977236;28;20902;-68
2022/05/11 15:22:10;;;;;;;0.80;0.70;;;30.70;36.90;;;;;;4977441;28;20547;-68
2022/05/11 15:24:37;;;;;;;0.97;0.70;;;30.70;36.40;;;;;;4977024;28;20450;-69
2022/05/11 15:27:04;;;;;;;0.60;0.60;;;30.90;38.00;;;;;;4977327;28;20478;-69
2022/05/11 15:29:31;;;;;;;0.70;0.60;;;31.00;36.90;;;;;;4977468;28;20871;-68
2022/05/11 15:32:02;;;;;;;0.60;0.50;;;31.00;36.70;;;;;;4977278;28;20485;-68
2022/05/11 15:34:31;;;;;;;1.23;0.70;;;30.70;36.20;;;;;;4977023;28;20485;-70
2022/05/11 15:36:59;;;;;;;0.60;0.60;;;30.50;37.30;;;;;;4977009;28;20450;-68
2022/05/11 15:39:27;;;;;;;0.60;0.60;;;30.20;37.20;;;;;;4976656;28;20442;-69
2022/05/11 15:41:55;;;;;;;1.27;0.60;;;30.10;36.90;;;;;;4976624;28;20902;-69
2022/05/11 15:44:22;;;;;;;0.70;0.60;;;30.00;36.80;;;;;;4976878;28;20504;-68
2022/05/11 15:46:49;;;;;;;0.70;0.60;;;29.70;37.40;;;;;;4976495;28;20996;-69
2022/05/11 15:49:17;;;;;;;0.90;0.60;;;29.60;38.00;;;;;;4976500;28;20849;-69
2022/05/11 15:51:45;;;;;;;0.60;0.60;;;29.80;37.40;;;;;;4976439;28;20743;-68
2022/05/11 15:54:13;;;;;;;0.80;0.70;;;29.50;37.70;;;;;;4976786;28;20536;-69
2022/05/11 15:56:40;;;;;;;0.60;0.60;;;29.20;37.80;;;;;;4976699;28;20462;-69
2022/05/11 15:59:07;;;;;;;1.00;0.70;;;29.00;38.50;;;;;;4976275;28;21026;-70
2022/05/11 16:01:34;;;;;;;0.90;0.70;;;29.10;39.60;;;;;;4976550;28;20501;-69
2022/05/11 16:04:00;;;;;;;0.60;0.60;;;29.30;39.40;;;;;;4976557;28;20452;-69
2022/05/11 16:06:28;;;;;;;1.37;0.60;;;29.10;38.30;;;;;;4976039;28;20900;-68
2022/05/11 16:08:55;;;;;;;0.80;0.70;;;29.20;38.60;;;;;;4976145;28;20864;-69
2022/05/11 16:11:25;;;;;;;0.70;0.60;;;29.10;38.30;;;;;;4976399;28;20457;-69
2022/05/11 16:13:53;;;;;;;1.47;0.70;;;28.90;37.90;;;;;;4976323;28;20477;-68
2022/05/11 16:16:20;;;;;;;0.60;0.60;;;28.60;38.20;;;;;;4975882;28;20478;-69
2022/05/11 16:21:33;;;;;;;1.13;0.60;;;28.50;39.20;;;;;;4976445;28;20785;-69
2022/05/11 16:24:00;;;;;;;1.00;0.60;;;28.50;38.90;;;;;;4976125;28;20446;-69
2022/05/11 16:26:26;;;;;;;1.00;0.70;;;28.30;38.40;;;;;;4976026;28;20485;-69
2022/05/11 16:28:54;;;;;;;0.70;0.60;;;28.20;38.40;;;;;;4976008;28;20594;-70
2022/05/11 16:31:21;;;;;;;1.20;0.60;;;28.10;38.60;;;;;;4976094;28;20446;-69
2022/05/11 16:33:48;;;;;;;0.80;0.60;;;28.10;38.30;;;;;;4975679;28;20512;-70
2022/05/11 16:36:15;;;;;;;0.70;0.60;;;28.20;39.30;;;;;;4975957;28;20470;-69
2022/05/11 16:38:43;;;;;;;0.67;0.53;;;28.40;38.30;;;;;;4975821;28;20532;-69
2022/05/11 16:41:11;;;;;;;0.63;0.60;;;28.60;38.00;;;;;;4975929;28;20449;-69
2022/05/11 16:43:38;;;;;;;0.70;0.60;;;28.50;37.30;;;;;;4975538;28;20450;-70
2022/05/11 16:46:05;;;;;;;0.70;0.70;;;28.50;38.10;;;;;;4975259;28;21056;-69
2022/05/11 16:48:32;;;;;;;0.60;0.60;;;28.50;37.50;;;;;;4975844;28;20509;-69
2022/05/11 16:50:59;;;;;;;0.60;0.60;;;28.40;38.10;;;;;;4975641;28;20504;-69
2022/05/11 16:53:26;;;;;;;0.80;0.60;;;28.40;38.40;;;;;;4975580;28;20461;-69
2022/05/11 16:55:54;;;;;;;0.83;0.60;;;28.40;38.70;;;;;;4975172;28;20985;-70